Time;durP1;ratioP1;P1;durP2;ratioP2;P2;SDS_P1;SDS_P2;PMS_P1;PMS_P2;Temp;Humidity;BMP_temperature;BMP_pressure;BME280_temperature;BME280_humidity;BME280_pressure;Samples;Min_cycle;Max_cycle;Signal;HPM_P1;HPM_P2
2022/02/04 00:22:23;;;;;;;24.37;12.50;;;3.20;99.90;;;;;;5126947;27;20213;-68
2022/02/04 00:24:51;;;;;;;28.90;12.87;;;3.20;99.90;;;;;;5131695;27;20709;-68
2022/02/04 00:27:21;;;;;;;22.80;11.57;;;3.20;99.90;;;;;;5140514;27;20206;-69
2022/02/04 00:29:57;;;;;;;26.27;12.97;;;3.20;99.90;;;;;;5148235;27;20613;-67
2022/02/04 00:32:27;;;;;;;23.30;12.67;;;3.20;99.90;;;;;;5132831;27;20206;-67
2022/02/04 00:35:02;;;;;;;24.20;12.37;;;3.20;99.90;;;;;;5124365;27;20641;-67
2022/02/04 00:37:37;;;;;;;19.57;11.10;;;3.20;99.90;;;;;;5138414;27;20195;-68
2022/02/04 00:40:12;;;;;;;20.67;12.17;;;3.20;99.90;;;;;;5136249;27;20203;-68
2022/02/04 00:42:39;;;;;;;25.20;12.70;;;3.20;99.90;;;;;;5134697;27;20211;-68
2022/02/04 00:45:18;;;;;;;29.07;13.13;;;3.20;99.90;;;;;;5132387;27;20203;-69
2022/02/04 00:47:51;;;;;;;23.63;12.60;;;3.20;99.90;;;;;;5147545;27;20624;-69
2022/02/04 00:50:27;;;;;;;24.90;12.50;;;3.20;99.90;;;;;;5130272;27;20271;-68
2022/02/04 00:53:06;;;;;;;28.63;12.73;;;3.10;99.90;;;;;;5144235;27;20210;-68
2022/02/04 00:55:41;;;;;;;26.17;12.93;;;3.20;99.90;;;;;;5138807;27;20219;-68
2022/02/04 01:26:00;;;;;;;27.33;14.03;;;3.20;99.90;;;;;;5133394;27;20290;-68
2022/02/04 01:28:28;;;;;;;26.37;13.50;;;3.20;99.90;;;;;;5136070;27;20207;-67
2022/02/04 01:30:56;;;;;;;26.07;13.90;;;3.20;99.90;;;;;;5137217;27;20211;-69
2022/02/04 01:33:25;;;;;;;23.80;13.73;;;3.10;99.90;;;;;;5145358;27;20203;-68
2022/02/04 01:35:54;;;;;;;27.67;13.90;;;3.10;99.90;;;;;;5128750;27;20691;-69
2022/02/04 01:38:21;;;;;;;27.43;12.70;;;3.10;99.90;;;;;;5131658;27;20726;-69
2022/02/04 01:40:48;;;;;;;27.50;13.23;;;3.10;99.90;;;;;;5139042;27;20214;-68
2022/02/04 01:43:17;;;;;;;26.63;12.37;;;3.10;99.90;;;;;;5128854;27;20645;-68
2022/02/04 01:45:44;;;;;;;26.67;12.80;;;3.10;99.90;;;;;;5139377;27;20264;-68
2022/02/04 01:48:10;;;;;;;27.87;12.73;;;3.10;99.90;;;;;;5135212;27;20199;-67
2022/02/04 01:50:39;;;;;;;23.50;12.90;;;3.10;99.90;;;;;;5134917;27;20666;-68
2022/02/04 01:53:05;;;;;;;27.57;13.77;;;3.00;99.90;;;;;;5145425;27;20624;-69
2022/02/04 01:55:33;;;;;;;29.30;13.57;;;3.00;99.90;;;;;;5132492;27;20282;-68
2022/02/04 01:58:00;;;;;;;24.50;13.77;;;3.00;99.90;;;;;;5129422;27;20222;-68
2022/02/04 02:00:26;;;;;;;29.03;14.07;;;3.00;99.90;;;;;;5134692;27;20196;-68
2022/02/04 02:02:54;;;;;;;25.83;13.60;;;2.90;99.90;;;;;;5136513;27;20306;-68
2022/02/04 02:05:21;;;;;;;28.20;14.37;;;2.90;99.90;;;;;;5133809;27;20227;-68
2022/02/04 02:07:49;;;;;;;24.53;13.03;;;2.90;99.90;;;;;;5137176;27;20231;-68
2022/02/04 02:10:19;;;;;;;27.47;14.27;;;2.90;99.90;;;;;;5134692;27;20716;-68
2022/02/04 02:12:55;;;;;;;28.70;13.07;;;2.90;99.90;;;;;;5131783;27;20610;-68
2022/02/04 02:15:29;;;;;;;23.50;13.40;;;2.90;99.90;;;;;;5142963;27;20670;-69
2022/02/04 02:43:09;;;;;;;21.37;12.63;;;3.20;99.90;;;;;;5135292;27;20202;-67
2022/02/04 02:45:55;;;;;;;27.83;12.77;;;3.20;99.90;;;;;;5134566;27;20199;-67
2022/02/04 02:48:38;;;;;;;24.50;12.83;;;3.20;99.90;;;;;;5124961;27;20235;-68
2022/02/04 02:51:34;;;;;;;22.00;12.37;;;3.30;99.90;;;;;;5132193;27;20202;-68
2022/02/04 02:54:14;;;;;;;23.70;12.57;;;3.30;99.90;;;;;;5135202;27;20997;-69
2022/02/04 02:59:32;;;;;;;24.50;12.97;;;3.30;99.90;;;;;;5128473;27;20210;-68
2022/02/04 03:01:59;;;;;;;26.40;12.20;;;3.30;99.90;;;;;;5134650;27;20674;-68
2022/02/04 03:04:26;;;;;;;26.07;12.23;;;3.30;99.90;;;;;;5138671;27;20227;-68
2022/02/04 03:06:52;;;;;;;27.77;12.77;;;3.30;99.90;;;;;;5129229;27;20281;-68
2022/02/04 03:09:19;;;;;;;27.40;12.67;;;3.30;99.90;;;;;;5132868;27;20297;-68
2022/02/04 03:11:48;;;;;;;23.20;11.73;;;3.30;99.90;;;;;;5125805;27;20206;-68
2022/02/04 03:14:14;;;;;;;20.17;11.47;;;3.30;99.90;;;;;;5126043;27;20218;-68
2022/02/04 03:16:44;;;;;;;26.20;12.40;;;3.30;99.90;;;;;;5135774;27;20204;-68
2022/02/04 03:19:10;;;;;;;22.63;11.83;;;3.30;99.90;;;;;;5140470;27;20206;-68
2022/02/04 03:21:40;;;;;;;25.07;12.63;;;3.40;99.90;;;;;;5133747;27;20255;-68
2022/02/04 03:24:11;;;;;;;19.93;12.23;;;3.30;99.90;;;;;;5123518;27;20219;-68
2022/02/04 03:26:46;;;;;;;20.27;11.73;;;3.30;99.90;;;;;;5117288;27;20204;-68
2022/02/04 03:29:19;;;;;;;21.70;11.93;;;3.40;99.90;;;;;;5140086;27;20304;-68
2022/02/04 03:31:50;;;;;;;25.93;11.63;;;3.40;99.90;;;;;;5119028;27;20549;-68
2022/02/04 03:34:17;;;;;;;26.67;12.60;;;3.40;99.90;;;;;;5132228;27;20559;-68
2022/02/04 03:36:44;;;;;;;26.70;13.00;;;3.40;99.90;;;;;;5127473;27;20237;-68
2022/02/04 03:39:11;;;;;;;23.30;11.83;;;3.40;99.90;;;;;;5136558;27;20198;-68
2022/02/04 03:41:37;;;;;;;23.80;12.00;;;3.40;99.90;;;;;;5142776;27;20675;-68
2022/02/04 03:44:05;;;;;;;21.73;11.80;;;3.40;99.90;;;;;;5137970;27;20225;-69
2022/02/04 03:46:33;;;;;;;20.50;12.13;;;3.30;99.90;;;;;;5129364;27;20209;-68
2022/02/04 03:49:00;;;;;;;18.37;10.97;;;3.30;99.90;;;;;;5136562;27;20636;-68
2022/02/04 03:51:27;;;;;;;22.03;12.67;;;3.30;99.90;;;;;;5136137;27;20215;-69
2022/02/04 03:53:54;;;;;;;20.43;11.60;;;3.30;99.90;;;;;;5145826;27;20704;-68
2022/02/04 03:56:20;;;;;;;24.43;11.93;;;3.20;99.90;;;;;;5123004;27;20223;-67
2022/02/04 03:58:47;;;;;;;22.80;12.43;;;3.30;99.90;;;;;;5136635;27;20217;-68
2022/02/04 04:01:14;;;;;;;22.70;11.87;;;3.20;99.90;;;;;;5131044;27;20213;-67
2022/02/04 04:03:43;;;;;;;19.37;11.57;;;3.20;99.90;;;;;;5136947;27;20209;-67
2022/02/04 04:06:11;;;;;;;20.27;12.10;;;3.20;99.90;;;;;;5131521;27;20203;-67
2022/02/04 04:08:38;;;;;;;21.70;12.97;;;3.20;99.90;;;;;;5134381;27;20211;-67
2022/02/04 04:11:05;;;;;;;24.00;11.67;;;3.20;99.90;;;;;;5135527;27;20202;-67
2022/02/04 04:13:32;;;;;;;23.90;12.47;;;3.20;99.90;;;;;;5143339;27;20226;-68
2022/02/04 04:15:59;;;;;;;24.27;12.77;;;3.20;99.90;;;;;;5137186;27;20211;-68
2022/02/04 04:18:26;;;;;;;24.07;12.87;;;3.20;99.90;;;;;;5147298;27;20310;-68
2022/02/04 04:20:54;;;;;;;22.87;12.03;;;3.20;99.90;;;;;;5141190;27;20286;-68
2022/02/04 04:23:21;;;;;;;23.57;12.73;;;3.20;99.90;;;;;;5135898;27;20222;-67
2022/02/04 04:25:48;;;;;;;22.23;12.87;;;3.20;99.90;;;;;;5140701;27;20608;-69
2022/02/04 04:28:15;;;;;;;26.00;13.00;;;3.20;99.90;;;;;;5122269;27;20208;-67
2022/02/04 04:30:42;;;;;;;21.60;12.43;;;3.20;99.90;;;;;;5144717;27;20234;-69
2022/02/04 04:33:10;;;;;;;23.00;11.93;;;3.20;99.90;;;;;;5129464;27;20585;-67
2022/02/04 04:35:38;;;;;;;19.63;11.60;;;3.20;99.90;;;;;;5137096;27;20199;-67
2022/02/04 04:38:12;;;;;;;20.80;12.43;;;3.30;99.90;;;;;;5129721;27;20209;-67
2022/02/04 04:40:55;;;;;;;20.77;12.53;;;3.30;99.90;;;;;;5153628;27;20201;-68
2022/02/04 04:43:37;;;;;;;21.27;11.77;;;3.30;99.90;;;;;;5133255;27;20691;-67
2022/02/04 05:27:56;;;;;;;20.43;12.27;;;3.50;99.90;;;;;;5133646;27;20689;-67
2022/02/04 05:30:23;;;;;;;22.73;12.30;;;3.50;99.90;;;;;;5143373;27;20210;-68
2022/02/04 05:32:50;;;;;;;21.90;12.50;;;3.60;99.90;;;;;;5146048;27;20217;-68
2022/02/04 05:35:18;;;;;;;20.73;12.20;;;3.60;99.90;;;;;;5140043;27;20198;-68
2022/02/04 05:37:48;;;;;;;24.07;13.37;;;3.60;99.90;;;;;;5131484;27;20568;-68
2022/02/04 05:40:19;;;;;;;23.87;13.00;;;3.50;99.90;;;;;;5127229;27;20204;-67
2022/02/04 05:42:52;;;;;;;22.43;12.97;;;3.60;99.90;;;;;;5136778;27;20229;-68
2022/02/04 05:45:22;;;;;;;19.77;12.40;;;3.60;99.90;;;;;;5128624;27;20212;-68
2022/02/04 05:47:55;;;;;;;22.50;14.17;;;3.60;99.90;;;;;;5130393;27;20600;-67
2022/02/04 05:50:28;;;;;;;22.80;13.77;;;3.60;99.90;;;;;;5135848;27;20207;-68
2022/02/04 05:53:12;;;;;;;23.00;13.73;;;3.60;99.90;;;;;;5139034;27;20203;-67
2022/02/04 05:55:51;;;;;;;21.20;12.77;;;3.60;99.90;;;;;;5128425;27;20249;-68
2022/02/04 05:58:33;;;;;;;21.90;13.23;;;3.70;99.90;;;;;;5132576;27;20198;-68
2022/02/04 06:01:13;;;;;;;22.43;13.20;;;3.70;99.90;;;;;;5135330;27;20191;-68
2022/02/04 06:03:52;;;;;;;22.20;13.43;;;3.70;99.90;;;;;;5129733;27;20234;-69
2022/02/04 06:06:46;;;;;;;21.70;13.63;;;3.70;99.90;;;;;;5139613;27;20207;-69
2022/02/04 06:23:10;;;;;;;25.33;14.43;;;3.70;99.90;;;;;;5086604;27;20243;-67
2022/02/04 06:25:37;;;;;;;24.17;14.80;;;3.60;99.90;;;;;;5135480;27;20215;-68
2022/02/04 06:28:04;;;;;;;24.60;13.93;;;3.60;99.90;;;;;;5136058;27;20298;-69
2022/02/04 06:30:33;;;;;;;26.70;14.93;;;3.70;99.90;;;;;;5132112;27;20300;-69
2022/02/04 06:33:00;;;;;;;22.27;14.07;;;3.70;99.90;;;;;;5135820;27;20207;-69
2022/02/04 06:35:29;;;;;;;24.37;14.23;;;3.70;99.90;;;;;;5134493;27;20284;-68
2022/02/04 06:37:56;;;;;;;25.27;14.30;;;3.70;99.90;;;;;;5137252;27;20215;-71
2022/02/04 06:40:23;;;;;;;24.60;14.40;;;3.70;99.90;;;;;;5144945;27;20207;-67
2022/02/04 06:42:50;;;;;;;25.90;15.43;;;3.70;99.90;;;;;;5143377;27;20210;-69
2022/02/04 06:45:17;;;;;;;27.27;15.70;;;3.80;99.90;;;;;;5133191;27;20247;-69
2022/02/04 06:47:46;;;;;;;26.03;14.97;;;3.80;99.90;;;;;;5139398;27;20207;-69
2022/02/04 06:50:14;;;;;;;22.53;14.00;;;3.80;99.90;;;;;;5138589;27;20607;-69
2022/02/04 06:52:42;;;;;;;24.80;15.47;;;3.80;99.90;;;;;;5137300;27;20199;-69
2022/02/04 06:55:10;;;;;;;22.83;14.80;;;3.90;99.90;;;;;;5123501;27;20260;-68
2022/02/04 06:57:37;;;;;;;26.93;14.63;;;3.80;99.90;;;;;;5127370;27;20219;-68
2022/02/04 07:00:05;;;;;;;29.67;15.80;;;3.90;99.90;;;;;;5123891;27;20729;-68
2022/02/04 07:02:32;;;;;;;26.87;15.57;;;3.80;99.90;;;;;;5125988;27;20573;-68
2022/02/04 07:05:07;;;;;;;29.90;16.27;;;3.90;99.90;;;;;;5128006;27;20292;-70
2022/02/04 07:07:35;;;;;;;25.53;14.77;;;3.90;99.90;;;;;;5131297;27;20236;-68
2022/02/04 07:10:10;;;;;;;26.33;15.63;;;3.90;99.90;;;;;;5130071;27;20195;-68
2022/02/04 07:12:49;;;;;;;25.87;15.13;;;3.90;99.90;;;;;;5135243;27;20253;-68
2022/02/04 07:21:16;;;;;;;25.67;15.57;;;3.90;99.90;;;;;;5043957;28;20289;-68
2022/02/04 07:23:43;;;;;;;34.30;16.13;;;3.90;99.90;;;;;;5055197;28;20285;-69
2022/02/04 07:26:10;;;;;;;28.37;15.90;;;3.80;99.90;;;;;;5086058;27;20237;-71
2022/02/04 07:28:37;;;;;;;36.10;17.13;;;3.90;99.90;;;;;;5123724;27;20203;-70
2022/02/04 07:31:05;;;;;;;30.80;16.60;;;3.90;99.90;;;;;;5137246;27;20297;-69
2022/02/04 07:33:42;;;;;;;28.63;16.20;;;3.90;99.90;;;;;;5126697;27;20199;-69
2022/02/04 07:41:40;;;;;;;29.30;15.77;;;3.90;99.90;;;;;;5129618;28;20259;-71
2022/02/04 07:44:07;;;;;;;31.90;15.57;;;3.90;99.90;;;;;;5126687;27;20708;-72
2022/02/04 07:46:35;;;;;;;30.27;17.10;;;3.90;99.90;;;;;;5133711;27;20219;-70
2022/02/04 07:49:02;;;;;;;25.20;15.67;;;4.00;99.90;;;;;;5135129;27;20796;-70
2022/02/04 07:51:29;;;;;;;28.67;17.03;;;4.00;99.90;;;;;;5128201;27;20213;-70
2022/02/04 07:53:58;;;;;;;32.13;17.17;;;4.00;99.90;;;;;;5134225;28;20214;-70
2022/02/04 07:56:25;;;;;;;32.17;17.37;;;4.00;99.90;;;;;;5124428;27;20571;-69
2022/02/04 07:58:58;;;;;;;31.57;16.73;;;4.10;99.90;;;;;;5128102;27;20285;-70
2022/02/04 08:01:28;;;;;;;30.00;17.10;;;4.10;99.90;;;;;;5132738;27;20202;-71
2022/02/04 08:04:01;;;;;;;30.27;17.63;;;4.10;99.90;;;;;;5138775;27;20244;-72
2022/02/04 08:06:31;;;;;;;32.00;18.00;;;4.20;99.90;;;;;;5138957;27;20663;-72
2022/02/04 08:09:07;;;;;;;35.23;17.93;;;4.30;99.90;;;;;;5126066;28;20199;-73
2022/02/04 08:14:34;;;;;;;26.83;16.33;;;4.30;99.90;;;;;;5132259;27;20215;-74
2022/02/04 08:22:52;;;;;;;30.00;16.57;;;4.40;99.90;;;;;;5094830;27;20204;-71
2022/02/04 08:25:42;;;;;;;29.00;16.23;;;4.50;99.90;;;;;;5130329;27;20219;-72
2022/02/04 08:28:38;;;;;;;24.83;15.40;;;4.50;99.90;;;;;;5129202;28;20195;-71
2022/02/04 08:31:30;;;;;;;26.63;15.03;;;4.40;99.90;;;;;;5126087;27;20206;-69
2022/02/04 08:34:19;;;;;;;27.90;16.40;;;4.50;99.90;;;;;;5143146;27;20202;-71
2022/02/04 08:37:07;;;;;;;27.33;15.07;;;4.50;99.90;;;;;;5132682;27;20246;-72
2022/02/04 08:50:55;;;;;;;23.03;13.83;;;4.70;99.90;;;;;;5128987;27;20207;-72
2022/02/04 08:56:20;;;;;;;21.50;14.13;;;4.80;99.90;;;;;;5137756;27;20231;-71
2022/02/04 08:58:53;;;;;;;23.03;13.80;;;4.80;99.90;;;;;;5143074;27;20726;-71
2022/02/04 09:01:24;;;;;;;22.80;12.93;;;4.80;99.90;;;;;;5145877;27;20207;-69
2022/02/04 09:04:03;;;;;;;23.27;15.07;;;4.80;99.90;;;;;;5145353;27;20264;-71
2022/02/04 09:06:36;;;;;;;21.10;13.67;;;4.80;99.90;;;;;;5125248;27;20219;-70
2022/02/04 09:09:06;;;;;;;24.80;14.57;;;4.80;99.90;;;;;;5134070;27;20565;-70
2022/02/04 09:11:46;;;;;;;20.97;14.30;;;4.80;99.90;;;;;;5151775;27;20202;-71
2022/02/04 09:17:24;;;;;;;23.13;13.57;;;4.90;99.90;;;;;;5131469;27;20203;-70
2022/02/04 09:20:01;;;;;;;21.90;13.67;;;4.90;99.90;;;;;;5129673;27;20867;-70
2022/02/04 09:22:40;;;;;;;21.97;13.83;;;4.90;99.90;;;;;;5136624;27;20191;-70
2022/02/04 09:25:08;;;;;;;22.37;14.40;;;4.90;99.90;;;;;;5134356;27;20195;-70
2022/02/04 09:27:35;;;;;;;20.57;12.73;;;4.90;99.90;;;;;;5139510;27;20199;-70
2022/02/04 09:30:06;;;;;;;21.37;13.37;;;4.90;99.90;;;;;;5134407;27;20290;-72
2022/02/04 09:32:34;;;;;;;19.20;12.87;;;4.90;99.90;;;;;;5135586;27;20203;-70
2022/02/04 09:35:02;;;;;;;20.80;12.80;;;4.90;99.90;;;;;;5147171;27;20198;-71
2022/02/04 09:37:30;;;;;;;19.87;13.07;;;5.00;99.90;;;;;;5134134;27;20207;-72
2022/02/04 09:39:57;;;;;;;20.47;13.00;;;4.90;99.90;;;;;;5137182;27;20622;-70
2022/02/04 09:42:24;;;;;;;23.90;13.13;;;4.90;99.90;;;;;;5137612;27;20203;-70
2022/02/04 09:44:51;;;;;;;22.23;13.07;;;5.00;99.90;;;;;;5134766;27;20214;-71
2022/02/04 09:47:21;;;;;;;20.27;13.07;;;5.00;99.90;;;;;;5139834;27;20215;-71
2022/02/04 09:49:57;;;;;;;20.77;13.07;;;5.00;99.90;;;;;;5124360;27;20209;-70
2022/02/04 10:09:44;;;;;;;19.80;12.53;;;5.20;99.90;;;;;;5133480;27;20197;-70
2022/02/04 10:15:13;;;;;;;18.93;12.07;;;5.10;99.90;;;;;;5126716;27;20684;-71
2022/02/04 10:17:57;;;;;;;21.07;12.77;;;5.10;99.90;;;;;;5138403;27;20231;-71
2022/02/04 10:20:26;;;;;;;21.93;12.53;;;5.10;99.90;;;;;;5142816;27;20246;-71
2022/02/04 10:22:53;;;;;;;19.60;12.27;;;5.10;99.90;;;;;;5131964;27;20735;-70
2022/02/04 10:25:20;;;;;;;18.47;12.30;;;5.10;99.90;;;;;;5129849;27;20202;-71
2022/02/04 10:27:47;;;;;;;21.10;13.47;;;5.00;99.90;;;;;;5133723;27;20199;-70
2022/02/04 10:30:17;;;;;;;20.83;13.87;;;5.10;99.90;;;;;;5141689;27;20289;-70
2022/02/04 10:32:46;;;;;;;19.00;12.80;;;5.20;99.90;;;;;;5131327;27;20216;-70
2022/02/04 10:35:19;;;;;;;17.53;11.40;;;5.20;99.90;;;;;;5142608;27;20224;-71
2022/02/04 10:38:05;;;;;;;18.30;12.20;;;5.10;99.90;;;;;;5127976;27;20252;-73
2022/02/04 10:40:43;;;;;;;17.53;11.27;;;5.10;99.90;;;;;;5149268;27;20201;-72
2022/02/04 10:43:26;;;;;;;17.93;11.70;;;5.10;99.90;;;;;;5134286;27;20206;-72
2022/02/04 10:46:17;;;;;;;20.47;12.23;;;5.10;99.90;;;;;;5120604;27;20305;-72
2022/02/04 10:49:05;;;;;;;16.80;11.57;;;5.10;99.90;;;;;;5132213;27;20267;-71
2022/02/04 11:00:11;;;;;;;17.03;11.40;;;5.20;99.90;;;;;;5127093;27;20188;-71
2022/02/04 11:02:52;;;;;;;16.50;11.73;;;5.20;99.90;;;;;;5125978;27;20207;-69
2022/02/04 11:05:25;;;;;;;18.03;11.70;;;5.20;99.90;;;;;;5119800;27;20203;-71
2022/02/04 11:35:47;;;;;;;18.70;12.53;;;5.40;99.90;;;;;;5108177;28;20199;-71
2022/02/04 11:52:33;;;;;;;15.43;12.00;;;5.60;99.90;;;;;;5128840;27;20188;-70
2022/02/04 11:55:00;;;;;;;16.73;12.27;;;5.60;99.90;;;;;;5129258;27;20213;-70
2022/02/04 11:57:29;;;;;;;16.07;12.13;;;5.50;99.90;;;;;;5125247;27;20215;-72
2022/02/04 12:00:00;;;;;;;20.97;12.50;;;5.50;99.90;;;;;;5126425;27;20244;-70
2022/02/04 12:02:40;;;;;;;19.77;13.60;;;5.50;99.90;;;;;;5129496;27;20397;-71
2022/02/04 12:05:37;;;;;;;22.20;13.47;;;5.50;99.90;;;;;;5129828;27;20215;-71
2022/02/04 12:08:27;;;;;;;22.03;12.80;;;5.60;99.90;;;;;;5066875;28;20233;-70
2022/02/04 12:10:56;;;;;;;19.80;13.20;;;5.50;99.90;;;;;;5127418;27;20214;-69
2022/02/04 12:13:24;;;;;;;20.30;14.33;;;5.50;99.90;;;;;;5127182;27;20204;-70
2022/02/04 12:16:04;;;;;;;19.37;12.83;;;5.50;99.90;;;;;;5131170;27;20211;-70
2022/02/04 12:19:06;;;;;;;18.83;12.03;;;5.60;99.90;;;;;;5123352;27;20253;-69
2022/02/04 12:21:44;;;;;;;24.50;13.77;;;5.50;99.90;;;;;;5139250;27;20226;-70
2022/02/04 12:24:33;;;;;;;20.13;12.30;;;5.60;99.90;;;;;;5134153;27;20207;-72
2022/02/04 12:27:25;;;;;;;19.60;13.13;;;5.60;99.90;;;;;;5136912;27;20219;-71
2022/02/04 12:29:53;;;;;;;18.07;11.93;;;5.50;99.90;;;;;;5134698;27;20218;-70
2022/02/04 12:32:21;;;;;;;23.67;14.20;;;5.60;99.90;;;;;;5140340;27;20203;-69
2022/02/04 12:34:51;;;;;;;19.90;13.70;;;5.60;99.90;;;;;;5135410;27;20210;-71
2022/02/04 12:37:20;;;;;;;21.33;13.60;;;5.50;99.90;;;;;;5134149;27;20215;-69
2022/02/04 12:39:47;;;;;;;20.57;13.33;;;5.60;99.90;;;;;;5133213;27;20271;-70
2022/02/04 12:42:18;;;;;;;21.13;12.87;;;5.60;99.90;;;;;;5134633;27;20201;-70
2022/02/04 12:44:46;;;;;;;20.87;13.63;;;5.60;99.90;;;;;;5133266;27;20203;-70
2022/02/04 12:47:15;;;;;;;22.73;13.20;;;5.60;99.90;;;;;;5136171;27;20323;-70
2022/02/04 12:49:51;;;;;;;22.27;14.07;;;5.60;99.90;;;;;;5129506;27;20267;-71
2022/02/04 12:52:24;;;;;;;21.47;14.20;;;5.50;99.90;;;;;;5132447;27;20660;-70
2022/02/04 12:54:54;;;;;;;22.23;13.87;;;5.60;99.90;;;;;;5131279;27;20573;-70
2022/02/04 12:57:36;;;;;;;23.13;14.23;;;5.50;99.90;;;;;;5133348;27;20419;-70
2022/02/04 13:00:21;;;;;;;24.83;14.10;;;5.60;99.90;;;;;;5128374;27;20215;-70
2022/02/04 13:03:04;;;;;;;21.93;14.07;;;5.50;99.90;;;;;;5133512;27;20271;-70
2022/02/04 13:08:23;;;;;;;27.30;16.30;;;5.60;99.90;;;;;;5127182;27;20349;-70
2022/02/04 13:10:58;;;;;;;23.10;14.80;;;5.50;99.90;;;;;;5138393;27;20203;-70
2022/02/04 13:13:25;;;;;;;20.50;13.73;;;5.60;99.90;;;;;;5136438;27;20206;-69
2022/02/04 13:15:54;;;;;;;25.87;14.73;;;5.60;99.90;;;;;;5135272;27;20209;-70
2022/02/04 13:18:23;;;;;;;25.13;14.77;;;5.60;99.90;;;;;;5135955;27;20688;-70
2022/02/04 13:20:55;;;;;;;23.13;13.33;;;5.60;99.90;;;;;;5130896;27;20200;-70
2022/02/04 13:23:24;;;;;;;25.93;15.17;;;5.60;99.90;;;;;;5130833;27;20380;-70
2022/02/04 13:25:52;;;;;;;21.50;13.43;;;5.60;99.90;;;;;;5129185;27;20671;-70
2022/02/04 13:28:20;;;;;;;22.20;13.77;;;5.60;99.90;;;;;;5132950;27;20210;-70
2022/02/04 13:30:59;;;;;;;22.80;13.77;;;5.60;99.90;;;;;;5122146;27;20291;-70
2022/02/04 13:33:28;;;;;;;21.13;13.90;;;5.60;99.90;;;;;;5129443;27;20252;-69
2022/02/04 13:36:02;;;;;;;23.97;14.13;;;5.60;99.90;;;;;;5133483;27;20270;-71
2022/02/04 13:38:37;;;;;;;24.40;15.53;;;5.60;99.90;;;;;;5130363;27;20195;-70
2022/02/04 13:41:13;;;;;;;21.27;13.57;;;5.70;99.90;;;;;;5132465;27;20582;-70
2022/02/04 13:43:49;;;;;;;23.67;14.80;;;5.70;99.90;;;;;;5131290;27;20691;-71
2022/02/04 13:46:24;;;;;;;20.93;13.53;;;5.60;99.90;;;;;;5126746;27;20209;-70
2022/02/04 13:51:52;;;;;;;22.87;13.53;;;5.70;99.90;;;;;;5120115;27;20287;-70
2022/02/04 13:54:24;;;;;;;22.30;13.30;;;5.70;99.90;;;;;;5123167;27;20290;-68
2022/02/04 13:57:10;;;;;;;25.23;14.33;;;5.70;99.90;;;;;;5129376;27;20226;-69
2022/02/04 13:59:44;;;;;;;24.80;14.57;;;5.70;99.90;;;;;;5126582;27;20553;-69
2022/02/04 14:02:15;;;;;;;24.00;15.03;;;5.70;99.90;;;;;;5127005;27;20289;-71
2022/02/04 14:05:01;;;;;;;20.57;13.87;;;5.80;99.90;;;;;;5130920;27;20245;-68
2022/02/04 14:07:39;;;;;;;18.47;12.93;;;5.80;99.90;;;;;;5122686;27;20234;-71
2022/02/04 14:10:22;;;;;;;22.37;14.90;;;5.80;99.90;;;;;;5119349;27;20195;-71
2022/02/04 14:13:04;;;;;;;21.60;13.50;;;5.80;99.90;;;;;;5127413;27;20203;-71
2022/02/04 14:15:32;;;;;;;23.83;14.70;;;5.80;99.90;;;;;;5123426;27;20214;-74
2022/02/04 14:18:05;;;;;;;25.00;13.80;;;5.80;99.90;;;;;;5120335;27;20199;-73
2022/02/04 14:20:32;;;;;;;24.70;14.73;;;5.80;99.90;;;;;;5120807;27;20536;-72
2022/02/04 14:23:01;;;;;;;24.13;13.63;;;5.80;99.90;;;;;;5134803;27;20574;-71
2022/02/04 14:25:28;;;;;;;27.90;14.03;;;5.80;99.90;;;;;;5121179;27;20205;-72
2022/02/04 14:27:59;;;;;;;25.67;14.93;;;5.80;99.90;;;;;;5110846;27;20215;-71
2022/02/04 14:30:31;;;;;;;23.60;13.60;;;5.80;99.90;;;;;;5123534;27;20208;-72
2022/02/04 14:33:05;;;;;;;22.40;13.40;;;5.80;99.90;;;;;;5124815;27;20211;-72
2022/02/04 14:35:45;;;;;;;24.03;15.10;;;5.80;99.90;;;;;;5121313;27;20561;-73
2022/02/04 14:49:56;;;;;;;24.23;14.63;;;5.80;99.90;;;;;;5121979;27;20267;-73
2022/02/04 14:52:32;;;;;;;23.07;13.20;;;5.80;99.90;;;;;;5118684;27;20211;-69
2022/02/04 15:00:51;;;;;;;25.00;14.87;;;5.80;99.90;;;;;;5126650;27;20324;-68
2022/02/04 15:03:25;;;;;;;26.80;14.77;;;5.80;99.90;;;;;;5133797;27;20582;-69
2022/02/04 15:06:02;;;;;;;23.43;14.50;;;5.80;99.90;;;;;;5128679;27;20656;-69
2022/02/04 15:08:31;;;;;;;22.20;14.43;;;5.70;99.90;;;;;;5122378;27;20239;-68
2022/02/04 15:11:01;;;;;;;23.83;13.63;;;5.80;99.90;;;;;;5119802;27;20674;-68
2022/02/04 15:13:29;;;;;;;25.30;14.83;;;5.80;99.90;;;;;;5126183;27;20699;-68
2022/02/04 15:15:56;;;;;;;29.13;16.07;;;5.80;99.90;;;;;;5140474;27;20286;-70
2022/02/04 15:18:23;;;;;;;27.37;15.83;;;5.80;99.90;;;;;;5146479;27;20593;-67
2022/02/04 15:20:53;;;;;;;26.93;15.03;;;5.80;99.90;;;;;;5134560;27;20348;-68
2022/02/04 15:23:20;;;;;;;29.50;15.97;;;5.80;99.90;;;;;;5141018;27;20278;-69
2022/02/04 15:25:52;;;;;;;25.83;15.40;;;5.80;99.90;;;;;;5131140;27;20285;-68
2022/02/04 15:28:36;;;;;;;26.13;15.67;;;5.80;99.90;;;;;;5141556;27;20221;-68
2022/02/04 15:31:04;;;;;;;30.20;16.03;;;5.80;99.90;;;;;;5130671;27;20221;-68
2022/02/04 15:33:35;;;;;;;29.47;17.20;;;5.80;99.90;;;;;;5144500;27;20232;-68
2022/02/04 15:36:02;;;;;;;28.83;15.67;;;5.90;99.90;;;;;;5125948;27;20207;-68
2022/02/04 15:38:29;;;;;;;27.50;16.43;;;5.90;99.90;;;;;;5130573;28;20199;-68
2022/02/04 15:40:58;;;;;;;28.37;16.33;;;5.80;99.90;;;;;;5130272;27;20203;-69
2022/02/04 15:43:29;;;;;;;31.73;16.67;;;5.90;99.90;;;;;;5135586;27;20203;-69
2022/02/04 15:46:34;;;;;;;28.57;17.30;;;5.90;99.90;;;;;;5132214;27;20221;-70
2022/02/04 15:49:20;;;;;;;30.43;17.17;;;5.90;99.90;;;;;;5134967;27;20198;-68
2022/02/04 15:55:08;;;;;;;30.07;16.73;;;5.80;99.90;;;;;;5113332;27;20748;-70
2022/02/04 15:57:44;;;;;;;29.07;17.17;;;5.90;99.90;;;;;;5130938;27;20219;-69
2022/02/04 16:05:52;;;;;;;33.47;17.20;;;5.90;99.90;;;;;;5118769;27;20680;-72
2022/02/04 16:08:20;;;;;;;30.03;17.97;;;5.90;99.90;;;;;;5130531;27;20228;-70
2022/02/04 16:10:54;;;;;;;27.70;17.33;;;5.90;99.90;;;;;;5130054;27;20203;-69
2022/02/04 16:13:38;;;;;;;30.80;18.80;;;5.90;99.90;;;;;;5130611;27;20221;-69
2022/02/04 16:16:19;;;;;;;30.70;18.47;;;5.90;99.90;;;;;;5127885;27;20203;-68
2022/02/04 16:19:00;;;;;;;31.07;16.97;;;5.90;99.90;;;;;;5131422;27;20217;-72
2022/02/04 16:21:34;;;;;;;27.90;17.60;;;5.80;99.90;;;;;;5126835;27;20620;-72
2022/02/04 16:24:16;;;;;;;29.03;17.67;;;5.80;99.90;;;;;;5131143;27;20211;-70
2022/02/04 16:26:53;;;;;;;32.57;19.13;;;5.80;99.90;;;;;;5132029;27;20191;-72
2022/02/04 16:29:19;;;;;;;31.40;17.73;;;5.80;99.90;;;;;;5128402;27;20196;-71
2022/02/04 16:31:47;;;;;;;33.50;18.97;;;5.90;99.90;;;;;;5131569;27;20213;-73
2022/02/04 16:34:15;;;;;;;31.77;17.87;;;5.80;99.90;;;;;;5141239;27;20252;-72
2022/02/04 16:36:45;;;;;;;29.07;17.20;;;5.80;99.90;;;;;;5132334;27;20206;-71
2022/02/04 16:39:13;;;;;;;37.23;19.70;;;5.80;99.90;;;;;;5131460;27;20206;-73
2022/02/04 16:44:25;;;;;;;28.17;17.37;;;5.70;99.90;;;;;;5127185;27;20207;-73
2022/02/04 16:46:52;;;;;;;28.47;17.27;;;5.70;99.90;;;;;;5138221;27;20234;-72
2022/02/04 16:49:20;;;;;;;32.87;19.93;;;5.70;99.90;;;;;;5136510;27;20199;-72
2022/02/04 16:51:49;;;;;;;31.50;18.40;;;5.60;99.90;;;;;;5132221;27;20205;-73
2022/02/04 16:54:18;;;;;;;30.63;17.63;;;5.60;99.90;;;;;;5131056;27;20211;-72
2022/02/04 16:56:46;;;;;;;31.03;17.97;;;5.60;99.90;;;;;;5139107;27;20671;-74
2022/02/04 16:59:13;;;;;;;28.13;17.20;;;5.60;99.90;;;;;;5136274;27;20211;-71
2022/02/04 17:01:40;;;;;;;35.53;18.30;;;5.60;99.90;;;;;;5124792;27;20265;-71
2022/02/04 17:04:07;;;;;;;32.47;17.50;;;5.50;99.90;;;;;;5135354;27;20807;-71
2022/02/04 17:06:39;;;;;;;28.43;17.00;;;5.50;99.90;;;;;;5132981;27;20297;-71
2022/02/04 17:09:21;;;;;;;25.10;16.57;;;5.40;99.90;;;;;;5134305;27;20290;-71
2022/02/04 17:11:51;;;;;;;26.87;16.67;;;5.40;99.90;;;;;;5146445;27;20550;-72
2022/02/04 17:14:18;;;;;;;30.20;17.43;;;5.40;99.90;;;;;;5121356;27;20200;-72
2022/02/04 17:16:46;;;;;;;32.57;18.40;;;5.40;99.90;;;;;;5119842;27;20211;-71
2022/02/04 17:19:17;;;;;;;31.13;18.10;;;5.40;99.90;;;;;;5124619;27;20200;-71
2022/02/04 17:21:49;;;;;;;31.20;19.00;;;5.40;99.90;;;;;;5113266;28;20226;-71
2022/02/04 17:24:17;;;;;;;30.80;18.77;;;5.40;99.90;;;;;;5120394;27;20743;-71
2022/02/04 17:26:44;;;;;;;31.53;18.47;;;5.40;99.90;;;;;;5120910;27;20257;-72
2022/02/04 17:29:13;;;;;;;32.33;17.33;;;5.40;99.90;;;;;;5113917;28;20236;-71
2022/02/04 17:31:40;;;;;;;26.20;17.37;;;5.40;99.90;;;;;;5114213;28;20212;-70
2022/02/04 17:34:07;;;;;;;33.20;17.73;;;5.40;99.90;;;;;;5116592;28;20242;-73
2022/02/04 17:36:36;;;;;;;26.30;16.50;;;5.40;99.90;;;;;;5112184;28;20212;-72